Time;durP1;ratioP1;P1;durP2;ratioP2;P2;SDS_P1;SDS_P2;PMS_P1;PMS_P2;Temp;Humidity;BMP_temperature;BMP_pressure;BME280_temperature;BME280_humidity;BME280_pressure;Samples;Min_cycle;Max_cycle;Signal;HPM_P1;HPM_P2
2022/07/09 00:02:18;;;;;;;14.07;8.50;;;16.80;99.90;;;;;;5028611;28;20033;-90
2022/07/09 00:04:43;;;;;;;18.67;9.55;;;16.70;99.90;;;;;;5032495;28;20186;-91
2022/07/09 00:07:09;;;;;;;15.35;8.48;;;16.80;99.90;;;;;;5070875;28;20045;-91
2022/07/09 00:09:34;;;;;;;15.65;9.07;;;16.70;99.90;;;;;;5067518;28;20041;-89
2022/07/09 00:12:00;;;;;;;14.38;9.15;;;16.70;99.90;;;;;;5053546;28;20140;-91
2022/07/09 00:14:26;;;;;;;13.18;9.35;;;16.70;99.90;;;;;;5070361;28;20392;-89
2022/07/09 00:16:51;;;;;;;16.50;9.45;;;16.70;99.90;;;;;;5041116;28;20258;-89
2022/07/09 00:19:17;;;;;;;13.32;8.65;;;16.70;99.90;;;;;;5068431;28;20097;-90
2022/07/09 00:21:43;;;;;;;16.58;8.77;;;16.70;99.90;;;;;;5072041;28;20120;-92
2022/07/09 00:24:08;;;;;;;13.07;8.43;;;16.60;99.90;;;;;;5054657;28;20094;-88
2022/07/09 00:26:34;;;;;;;13.85;8.88;;;16.60;99.90;;;;;;5034274;28;20041;-91
2022/07/09 00:29:00;;;;;;;13.82;8.32;;;16.60;99.90;;;;;;5046480;28;20045;-89
2022/07/09 00:31:25;;;;;;;14.57;8.80;;;16.60;99.90;;;;;;5060252;28;20043;-91
2022/07/09 00:33:51;;;;;;;15.95;8.95;;;16.50;99.90;;;;;;5068080;28;20037;-90
2022/07/09 00:36:16;;;;;;;16.48;8.65;;;16.60;99.90;;;;;;5054157;28;20105;-91
2022/07/09 00:38:42;;;;;;;15.48;8.88;;;16.50;99.90;;;;;;5053864;28;20431;-91
2022/07/09 00:41:08;;;;;;;14.50;8.73;;;16.80;99.90;;;;;;5051768;28;20413;-91
2022/07/09 00:43:33;;;;;;;14.55;8.90;;;16.50;99.90;;;;;;5069116;28;20443;-90
2022/07/09 00:45:59;;;;;;;14.38;9.15;;;16.50;99.90;;;;;;5061239;28;20056;-88
2022/07/09 00:48:25;;;;;;;16.80;9.57;;;16.50;99.90;;;;;;5049534;28;20048;-90
2022/07/09 00:50:51;;;;;;;15.32;10.15;;;16.50;99.90;;;;;;5032639;28;20091;-89
2022/07/09 00:53:21;;;;;;;14.52;9.35;;;16.50;99.90;;;;;;5033197;28;20072;-89
2022/07/09 00:55:48;;;;;;;16.88;8.77;;;16.40;99.90;;;;;;5039559;28;20040;-90
2022/07/09 00:58:17;;;;;;;14.98;9.30;;;16.40;99.90;;;;;;5086407;28;20075;-91
2022/07/09 01:00:43;;;;;;;16.98;9.70;;;16.40;99.90;;;;;;5064884;28;20400;-89
2022/07/09 01:03:09;;;;;;;16.10;9.25;;;16.40;99.90;;;;;;5049725;28;20337;-89
2022/07/09 01:05:35;;;;;;;15.25;10.07;;;16.40;99.90;;;;;;5050103;28;20033;-89
2022/07/09 01:08:05;;;;;;;16.50;9.48;;;;;;;;;;5050097;28;20048;-90
2022/07/09 01:10:31;;;;;;;13.90;9.63;;;16.20;99.90;;;;;;5050934;28;20037;-89
2022/07/09 01:12:57;;;;;;;15.45;10.35;;;16.30;99.90;;;;;;5052126;28;20053;-89
2022/07/09 01:15:23;;;;;;;19.38;10.05;;;16.20;99.90;;;;;;5068472;28;20029;-90
2022/07/09 01:17:51;;;;;;;15.95;10.20;;;16.20;99.90;;;;;;5067163;28;20055;-89
2022/07/09 01:20:22;;;;;;;16.48;11.10;;;16.20;99.90;;;;;;5069846;28;20324;-90
2022/07/09 01:22:47;;;;;;;15.93;9.97;;;16.20;99.90;;;;;;5042083;28;20179;-90
2022/07/09 01:25:16;;;;;;;17.13;10.32;;;16.10;99.90;;;;;;5032894;28;20084;-89
2022/07/09 01:27:42;;;;;;;14.40;10.27;;;16.10;99.90;;;;;;5032452;28;20041;-88
2022/07/09 01:30:08;;;;;;;15.48;10.70;;;16.10;99.90;;;;;;5034157;28;20037;-91
2022/07/09 01:32:33;;;;;;;16.65;10.45;;;16.10;99.90;;;;;;5031657;28;20378;-91
2022/07/09 01:34:59;;;;;;;15.43;11.05;;;16.40;99.90;;;;;;5068772;28;20098;-89
2022/07/09 01:37:25;;;;;;;15.40;10.95;;;16.10;99.90;;;;;;5052978;28;20048;-89
2022/07/09 01:39:50;;;;;;;16.23;10.65;;;16.10;99.90;;;;;;5068696;28;20063;-90
2022/07/09 01:42:17;;;;;;;15.35;11.38;;;16.10;99.90;;;;;;5050067;28;20044;-91
2022/07/09 01:44:44;;;;;;;17.13;10.70;;;16.80;99.90;;;;;;5046226;28;20123;-90
2022/07/09 01:47:10;;;;;;;17.17;10.95;;;16.10;99.90;;;;;;5068566;28;20128;-90
2022/07/09 01:49:36;;;;;;;15.60;10.30;;;;;;;;;;5060121;28;20555;-89
2022/07/09 01:52:02;;;;;;;17.35;10.25;;;;;;;;;;5049627;28;20186;-89
2022/07/09 01:54:27;;;;;;;15.77;11.02;;;16.20;99.90;;;;;;5047520;28;20439;-91
2022/07/09 01:56:53;;;;;;;18.27;11.30;;;16.20;99.90;;;;;;5064506;28;20044;-91
2022/07/09 01:59:18;;;;;;;16.35;11.13;;;16.20;99.90;;;;;;5052267;28;20346;-90
2022/07/09 02:01:44;;;;;;;15.00;11.40;;;16.20;99.90;;;;;;5061809;28;20114;-89
2022/07/09 02:04:09;;;;;;;15.27;10.95;;;16.20;99.90;;;;;;5047512;28;20044;-88
2022/07/09 02:06:35;;;;;;;16.33;11.77;;;16.20;99.90;;;;;;5048275;28;20048;-91
2022/07/09 02:09:00;;;;;;;16.10;12.02;;;16.10;99.90;;;;;;5048083;28;20235;-89
2022/07/09 02:11:26;;;;;;;17.98;12.35;;;16.20;99.90;;;;;;5049913;28;20170;-91
2022/07/09 02:13:52;;;;;;;17.70;11.70;;;16.20;99.90;;;;;;5046734;28;20141;-90
2022/07/09 02:16:17;;;;;;;17.98;12.00;;;16.10;99.90;;;;;;5048971;28;20499;-88
2022/07/09 02:18:43;;;;;;;15.80;11.10;;;16.20;99.90;;;;;;5047371;28;20143;-90
2022/07/09 02:21:11;;;;;;;21.67;13.57;;;16.10;99.90;;;;;;5059936;28;20422;-91
2022/07/09 02:23:37;;;;;;;16.27;11.82;;;16.10;99.90;;;;;;5066871;28;20041;-90
2022/07/09 02:26:03;;;;;;;17.40;12.00;;;16.10;99.90;;;;;;5064927;28;20535;-89
2022/07/09 02:28:29;;;;;;;17.35;12.00;;;;;;;;;;5067434;28;20084;-90
2022/07/09 02:30:56;;;;;;;16.02;10.88;;;;;;;;;;5050903;28;20048;-89
2022/07/09 02:33:22;;;;;;;18.25;12.63;;;16.10;99.90;;;;;;5068104;28;20038;-89
2022/07/09 02:35:47;;;;;;;16.40;11.85;;;16.20;99.90;;;;;;5058737;28;20457;-89
2022/07/09 02:38:13;;;;;;;18.48;12.40;;;16.20;99.90;;;;;;5069519;28;20033;-89
2022/07/09 02:40:39;;;;;;;18.38;12.52;;;16.10;99.90;;;;;;5068239;28;20057;-89
2022/07/09 02:43:05;;;;;;;16.65;12.13;;;16.10;99.90;;;;;;5067387;28;20424;-90
2022/07/09 02:45:30;;;;;;;19.35;13.15;;;16.20;99.90;;;;;;5048256;28;21270;-89
2022/07/09 02:47:56;;;;;;;19.58;13.05;;;16.10;99.90;;;;;;5050470;28;20090;-89
2022/07/09 02:50:22;;;;;;;18.55;13.35;;;16.10;99.90;;;;;;5054118;28;20464;-90
2022/07/09 02:52:47;;;;;;;19.33;12.48;;;16.10;99.90;;;;;;5052338;28;20396;-91
2022/07/09 02:55:13;;;;;;;19.13;12.98;;;16.10;99.90;;;;;;5050036;28;20509;-89
2022/07/09 02:57:39;;;;;;;17.10;12.15;;;16.10;99.90;;;;;;5068552;28;20094;-89
2022/07/09 03:00:06;;;;;;;19.23;13.05;;;16.10;99.90;;;;;;5064573;28;20048;-90
2022/07/09 03:02:32;;;;;;;15.80;12.75;;;16.10;99.90;;;;;;5047927;28;20556;-89
2022/07/09 03:04:57;;;;;;;18.73;12.45;;;16.10;99.90;;;;;;5046906;28;20133;-90
2022/07/09 03:07:23;;;;;;;18.90;12.93;;;16.10;99.90;;;;;;5048158;28;20132;-89
2022/07/09 03:09:49;;;;;;;17.75;12.48;;;16.10;99.90;;;;;;5060370;28;20481;-89
2022/07/09 03:12:15;;;;;;;18.45;13.00;;;16.10;99.90;;;;;;5068236;28;20492;-89
2022/07/09 03:14:40;;;;;;;16.33;11.93;;;16.10;99.90;;;;;;5051531;28;20381;-90
2022/07/09 03:17:06;;;;;;;16.58;11.68;;;16.10;99.90;;;;;;5068482;28;20126;-91
2022/07/09 03:19:32;;;;;;;18.33;11.95;;;16.20;99.90;;;;;;5055803;28;20100;-91
2022/07/09 03:21:57;;;;;;;18.63;12.48;;;16.20;99.90;;;;;;5046995;28;20448;-90
2022/07/09 03:24:23;;;;;;;17.90;12.13;;;16.20;99.90;;;;;;5069132;28;20382;-91
2022/07/09 03:26:49;;;;;;;16.63;11.93;;;16.10;99.90;;;;;;5065412;28;20131;-89
2022/07/09 03:29:15;;;;;;;16.25;11.82;;;16.20;99.90;;;;;;5068304;28;20520;-90
2022/07/09 03:31:40;;;;;;;17.10;11.48;;;16.30;99.90;;;;;;5068250;28;20045;-89
2022/07/09 03:34:06;;;;;;;16.15;11.25;;;;;;;;;;5037527;28;20041;-91
2022/07/09 03:36:32;;;;;;;16.48;11.07;;;;;;;;;;5047767;28;20183;-89
2022/07/09 03:38:58;;;;;;;16.17;11.45;;;16.10;99.90;;;;;;5065624;28;20051;-89
2022/07/09 03:41:24;;;;;;;15.85;11.00;;;16.20;99.90;;;;;;5072208;28;20036;-90
2022/07/09 03:43:49;;;;;;;15.57;11.07;;;17.10;99.90;;;;;;5062854;28;20040;-90
2022/07/09 03:46:15;;;;;;;18.55;11.43;;;16.20;99.90;;;;;;5035475;28;20145;-90
2022/07/09 03:48:41;;;;;;;16.25;11.00;;;16.70;99.90;;;;;;5033894;28;20064;-90
2022/07/09 03:51:07;;;;;;;15.45;10.73;;;;;;;;;;5058120;28;20106;-89
2022/07/09 03:53:33;;;;;;;18.20;11.40;;;;;;;;;;5070840;28;20041;-91
2022/07/09 03:55:59;;;;;;;16.13;12.57;;;16.10;99.90;;;;;;5070655;28;20049;-90
2022/07/09 03:58:24;;;;;;;16.23;11.65;;;16.20;99.90;;;;;;5055267;28;20105;-91
2022/07/09 04:00:52;;;;;;;16.25;11.82;;;16.10;99.90;;;;;;5070925;28;20048;-89
2022/07/09 04:03:17;;;;;;;17.52;11.88;;;16.10;99.90;;;;;;5063472;28;20045;-89
2022/07/09 04:05:44;;;;;;;15.60;11.07;;;16.10;99.90;;;;;;5049698;28;20120;-90
2022/07/09 04:08:10;;;;;;;17.80;11.85;;;16.10;99.90;;;;;;5067627;28;20471;-89
2022/07/09 04:10:36;;;;;;;15.07;11.32;;;16.20;99.90;;;;;;5050997;28;20127;-89
2022/07/09 04:13:01;;;;;;;15.82;12.00;;;16.20;99.90;;;;;;5050790;28;20129;-90
2022/07/09 04:15:27;;;;;;;18.08;12.07;;;;;;;;;;5051574;28;20087;-90
2022/07/09 04:17:53;;;;;;;19.75;11.90;;;16.20;99.90;;;;;;5050451;28;20040;-89
2022/07/09 04:20:19;;;;;;;16.52;11.80;;;16.30;99.90;;;;;;5067152;28;20051;-89
2022/07/09 04:22:44;;;;;;;16.70;11.98;;;16.20;99.90;;;;;;5052227;28;20048;-91
2022/07/09 04:25:10;;;;;;;17.95;12.00;;;16.20;99.90;;;;;;5071147;28;20053;-90
2022/07/09 04:27:38;;;;;;;17.42;12.15;;;16.20;99.90;;;;;;5072500;28;20071;-90
2022/07/09 04:30:06;;;;;;;18.90;12.05;;;16.20;99.90;;;;;;5070413;28;20040;-90
2022/07/09 04:32:31;;;;;;;17.38;11.95;;;16.30;99.90;;;;;;5066621;28;20041;-91
2022/07/09 04:34:57;;;;;;;15.95;12.38;;;16.30;99.90;;;;;;5044291;28;20417;-90
2022/07/09 04:37:22;;;;;;;20.95;12.23;;;16.30;99.90;;;;;;5071775;28;20088;-89
2022/07/09 04:39:48;;;;;;;16.27;11.77;;;16.30;99.90;;;;;;5071425;28;20033;-90
2022/07/09 04:42:14;;;;;;;20.92;12.10;;;16.40;99.90;;;;;;5054858;28;20041;-91
2022/07/09 04:44:41;;;;;;;17.25;11.95;;;16.40;99.90;;;;;;5068175;28;20041;-90
2022/07/09 04:47:07;;;;;;;16.77;11.57;;;16.60;99.90;;;;;;5066197;28;20045;-90
2022/07/09 04:49:33;;;;;;;20.23;12.88;;;16.50;99.90;;;;;;5064301;28;20058;-91
2022/07/09 04:51:58;;;;;;;17.65;12.10;;;16.50;99.90;;;;;;5051537;28;20056;-91
2022/07/09 04:54:24;;;;;;;19.33;12.32;;;16.50;99.90;;;;;;5041217;28;20044;-91
2022/07/09 04:56:49;;;;;;;18.23;12.32;;;16.60;99.90;;;;;;5049170;28;20095;-93
2022/07/09 04:59:15;;;;;;;17.63;12.07;;;16.60;99.90;;;;;;5047880;28;20047;-90
2022/07/09 05:01:41;;;;;;;19.65;13.27;;;16.60;99.90;;;;;;5049537;28;20039;-89
2022/07/09 05:04:06;;;;;;;17.00;12.02;;;16.70;99.90;;;;;;5047951;28;20465;-90
2022/07/09 05:06:32;;;;;;;16.65;11.63;;;16.70;99.90;;;;;;5044013;28;20413;-90
2022/07/09 05:08:58;;;;;;;20.38;12.85;;;16.70;99.90;;;;;;5054542;28;20390;-88
2022/07/09 05:11:24;;;;;;;20.35;12.00;;;16.80;99.90;;;;;;5067511;28;20398;-88
2022/07/09 05:13:49;;;;;;;20.13;12.63;;;16.80;99.90;;;;;;5063133;28;20190;-90
2022/07/09 05:16:15;;;;;;;20.17;12.95;;;16.80;99.90;;;;;;5061871;28;20060;-90
2022/07/09 05:18:40;;;;;;;17.95;12.13;;;16.90;99.90;;;;;;5062527;28;20144;-89
2022/07/09 05:21:06;;;;;;;18.52;12.13;;;17.00;99.90;;;;;;5049400;28;20477;-89
2022/07/09 05:23:32;;;;;;;20.67;12.82;;;16.90;99.90;;;;;;5051117;28;20037;-90
2022/07/09 05:25:57;;;;;;;18.45;11.95;;;16.90;99.90;;;;;;5052282;28;20485;-90
2022/07/09 05:28:23;;;;;;;17.27;11.70;;;17.00;99.90;;;;;;5053971;28;20040;-89
2022/07/09 05:30:48;;;;;;;17.35;11.32;;;17.00;99.90;;;;;;5069233;28;20055;-89
2022/07/09 05:33:14;;;;;;;16.60;10.85;;;17.10;99.90;;;;;;5069141;28;20519;-89
2022/07/09 05:35:40;;;;;;;16.20;10.27;;;;;;;;;;5050961;28;20382;-89
2022/07/09 05:38:06;;;;;;;17.20;10.95;;;17.10;99.90;;;;;;5052800;28;20059;-89
2022/07/09 05:40:31;;;;;;;15.93;9.32;;;17.20;99.90;;;;;;5048558;28;20116;-91
2022/07/09 05:42:57;;;;;;;16.08;10.13;;;17.30;99.90;;;;;;5048438;28;20094;-91
2022/07/09 05:45:23;;;;;;;17.17;10.52;;;17.30;99.90;;;;;;5050725;28;20041;-89
2022/07/09 05:47:48;;;;;;;15.02;10.18;;;17.40;99.90;;;;;;5048515;28;20436;-91
2022/07/09 05:50:14;;;;;;;15.02;10.00;;;17.40;99.90;;;;;;5048339;28;20487;-90
2022/07/09 05:52:39;;;;;;;15.05;10.15;;;17.50;99.90;;;;;;5052685;28;20132;-90
2022/07/09 05:55:05;;;;;;;15.30;9.55;;;17.50;99.90;;;;;;5048024;28;20036;-88
2022/07/09 05:57:31;;;;;;;14.27;9.50;;;17.60;99.90;;;;;;5048704;28;20072;-90
2022/07/09 05:59:57;;;;;;;14.45;9.30;;;17.70;99.90;;;;;;5046407;28;20507;-91
2022/07/09 06:02:23;;;;;;;13.48;9.20;;;17.70;99.90;;;;;;5043376;28;20040;-90
2022/07/09 06:04:49;;;;;;;14.73;9.10;;;17.70;99.90;;;;;;5031124;28;20112;-88
2022/07/09 06:07:15;;;;;;;13.52;8.63;;;17.80;99.90;;;;;;5047823;28;20041;-89
2022/07/09 06:09:41;;;;;;;13.55;7.88;;;17.80;99.90;;;;;;5048173;28;20443;-89
2022/07/09 06:12:07;;;;;;;14.18;8.10;;;17.80;99.90;;;;;;5044319;28;20385;-90
2022/07/09 06:14:33;;;;;;;13.00;7.93;;;17.80;99.90;;;;;;5049101;28;20037;-90
2022/07/09 06:17:05;;;;;;;13.73;7.68;;;17.90;99.90;;;;;;5049518;28;20032;-90
2022/07/09 06:19:31;;;;;;;12.52;6.75;;;;;;;;;;5055800;28;20051;-90
2022/07/09 06:21:57;;;;;;;11.43;7.35;;;;;;;;;;5046415;28;20045;-90
2022/07/09 06:24:24;;;;;;;12.73;6.68;;;;;;;;;;5048436;28;20489;-87
2022/07/09 06:26:49;;;;;;;11.70;7.20;;;18.10;99.90;;;;;;5049027;28;20052;-92
2022/07/09 06:29:15;;;;;;;10.55;7.40;;;18.20;99.90;;;;;;5035562;28;20123;-94
2022/07/09 06:31:41;;;;;;;12.23;7.18;;;18.60;99.90;;;;;;5048044;28;20124;-87
2022/07/09 06:34:07;;;;;;;9.90;6.40;;;19.00;99.90;;;;;;5030993;28;20091;-93
2022/07/09 06:36:33;;;;;;;10.70;6.47;;;17.70;99.90;;;;;;5054864;28;20081;-94
2022/07/09 06:41:43;;;;;;;10.82;5.93;;;18.30;99.90;;;;;;5055398;28;20094;-95
2022/07/09 06:44:09;;;;;;;10.65;5.60;;;18.30;99.90;;;;;;5035860;28;20060;-94
2022/07/09 06:46:35;;;;;;;9.63;6.35;;;18.30;99.90;;;;;;5049909;28;20033;-93
2022/07/09 06:49:01;;;;;;;10.65;5.93;;;18.30;99.90;;;;;;5047961;28;20068;-91
2022/07/09 06:51:27;;;;;;;10.00;5.65;;;18.30;99.90;;;;;;5075361;28;20050;-95
2022/07/09 06:53:55;;;;;;;10.80;5.95;;;18.30;99.90;;;;;;5068039;28;20041;-95
2022/07/09 06:56:22;;;;;;;9.73;5.90;;;18.40;99.90;;;;;;5040326;28;20045;-96
2022/07/09 06:58:48;;;;;;;10.30;5.18;;;18.30;99.90;;;;;;5086367;22;20053;-92
2022/07/09 07:01:14;;;;;;;11.70;5.70;;;18.30;99.90;;;;;;5051727;28;20108;-93
2022/07/09 07:03:39;;;;;;;10.30;5.60;;;18.80;99.90;;;;;;5029617;28;20064;-90
2022/07/09 07:06:05;;;;;;;9.48;5.03;;;18.80;99.90;;;;;;5028915;28;20045;-92
2022/07/09 07:08:30;;;;;;;10.40;5.78;;;19.00;99.90;;;;;;5014269;28;20132;-96
2022/07/09 07:10:56;;;;;;;11.15;5.45;;;20.00;99.90;;;;;;5041155;28;20045;-93
2022/07/09 07:13:22;;;;;;;9.93;5.35;;;18.70;99.90;;;;;;5021542;28;20033;-93
2022/07/09 07:15:49;;;;;;;10.50;5.32;;;18.60;99.90;;;;;;5056495;28;20033;-96
2022/07/09 07:18:18;;;;;;;9.32;4.95;;;18.60;99.90;;;;;;5018974;28;20053;-96
2022/07/09 07:20:44;;;;;;;8.05;4.28;;;19.40;99.90;;;;;;5051852;28;20049;-94
2022/07/09 07:23:09;;;;;;;9.65;5.43;;;19.20;99.90;;;;;;5046599;28;20075;-92
2022/07/09 07:25:35;;;;;;;8.38;5.18;;;19.40;99.90;;;;;;5044258;28;20051;-93
2022/07/09 07:28:02;;;;;;;9.30;4.97;;;18.80;99.90;;;;;;5035310;28;20051;-96
2022/07/09 07:30:32;;;;;;;9.10;4.60;;;20.00;99.90;;;;;;5052203;28;20051;-94
2022/07/09 07:33:00;;;;;;;10.18;4.70;;;19.10;99.90;;;;;;5030928;28;20049;-94
2022/07/09 07:35:26;;;;;;;9.23;4.65;;;18.60;99.90;;;;;;5046337;28;20033;-93
2022/07/09 07:37:52;;;;;;;9.90;4.43;;;19.20;99.90;;;;;;5029617;28;20125;-93
2022/07/09 07:40:18;;;;;;;10.60;4.65;;;18.60;99.90;;;;;;5036968;28;20038;-94
2022/07/09 07:42:44;;;;;;;9.00;4.22;;;19.70;99.90;;;;;;4996181;28;20048;-94
2022/07/09 07:45:10;;;;;;;9.50;4.32;;;18.70;99.90;;;;;;5013084;28;20495;-95
2022/07/09 07:47:36;;;;;;;7.97;4.40;;;18.70;99.90;;;;;;5015447;28;20037;-93
2022/07/09 07:50:02;;;;;;;8.45;3.97;;;19.20;99.90;;;;;;5011613;28;20041;-93
2022/07/09 07:52:27;;;;;;;8.15;4.15;;;18.90;99.90;;;;;;5012422;28;20041;-91
2022/07/09 07:54:53;;;;;;;8.60;4.13;;;18.80;99.90;;;;;;5025555;28;20518;-93
2022/07/09 07:57:18;;;;;;;8.57;4.15;;;18.80;99.90;;;;;;5030263;28;20086;-93
2022/07/09 07:59:46;;;;;;;8.60;4.00;;;;;;;;;;5032133;28;20057;-94
2022/07/09 08:02:12;;;;;;;8.25;4.18;;;18.80;99.90;;;;;;5037567;28;20397;-91
2022/07/09 08:04:38;;;;;;;8.27;4.10;;;19.60;99.90;;;;;;5047199;28;20032;-95
2022/07/09 08:07:03;;;;;;;8.32;3.60;;;18.40;99.90;;;;;;5035596;28;20049;-93
2022/07/09 08:09:30;;;;;;;7.50;3.90;;;18.80;99.90;;;;;;5050882;28;20393;-93
2022/07/09 08:11:55;;;;;;;9.15;4.03;;;19.50;99.90;;;;;;5037477;28;20049;-95
2022/07/09 08:14:21;;;;;;;7.88;3.70;;;;;;;;;;5036895;28;20038;-95
2022/07/09 08:16:47;;;;;;;8.43;3.63;;;19.10;99.90;;;;;;5034565;28;20100;-95
2022/07/09 08:19:14;;;;;;;7.20;3.30;;;20.20;99.90;;;;;;5030236;28;20445;-94
2022/07/09 08:21:40;;;;;;;8.77;3.25;;;19.30;99.90;;;;;;5025451;28;20052;-94
2022/07/09 08:24:06;;;;;;;5.97;3.00;;;19.50;99.90;;;;;;5032000;28;20049;-95
2022/07/09 08:26:32;;;;;;;8.88;3.22;;;19.70;99.90;;;;;;5037298;28;20049;-95
2022/07/09 08:29:00;;;;;;;7.88;3.22;;;19.60;99.90;;;;;;5044241;28;20053;-95
2022/07/09 08:31:26;;;;;;;6.85;3.00;;;19.70;99.90;;;;;;5040364;28;20038;-95
2022/07/09 08:33:52;;;;;;;6.90;2.78;;;19.60;99.90;;;;;;5037449;28;20046;-92
2022/07/09 08:36:18;;;;;;;7.20;3.13;;;19.70;99.90;;;;;;5022810;28;20046;-92
2022/07/09 08:38:44;;;;;;;6.53;2.67;;;19.70;99.90;;;;;;5017429;28;20087;-90
2022/07/09 08:41:10;;;;;;;8.38;2.60;;;19.80;99.90;;;;;;5032263;28;20673;-93
2022/07/09 08:43:37;;;;;;;6.10;2.50;;;20.00;99.90;;;;;;5032719;28;20041;-91
2022/07/09 08:46:04;;;;;;;5.43;2.60;;;19.70;99.90;;;;;;5037246;28;20052;-94
2022/07/09 08:48:35;;;;;;;7.00;2.50;;;20.00;99.90;;;;;;5035964;28;20060;-95
2022/07/09 08:51:01;;;;;;;4.25;1.95;;;20.20;99.90;;;;;;5033734;28;20377;-91
2022/07/09 08:53:27;;;;;;;4.72;2.05;;;20.30;99.90;;;;;;5034202;28;20057;-93
2022/07/09 08:55:54;;;;;;;6.53;2.25;;;20.30;99.90;;;;;;5032775;28;20398;-90
2022/07/09 08:58:20;;;;;;;5.43;2.20;;;20.20;99.90;;;;;;5034303;28;20536;-96
2022/07/09 09:00:48;;;;;;;8.02;2.30;;;20.50;99.90;;;;;;5035845;28;20207;-95
2022/07/09 09:03:14;;;;;;;6.38;2.40;;;20.60;99.90;;;;;;5042114;28;20516;-96
2022/07/09 09:05:39;;;;;;;6.40;2.10;;;20.90;99.90;;;;;;5044348;28;20053;-89
2022/07/09 09:08:24;;;;;;;4.80;2.00;;;20.80;99.90;;;;;;5038961;28;20079;-90
2022/07/09 09:10:50;;;;;;;3.90;1.98;;;20.80;99.90;;;;;;5040207;28;20043;-95
2022/07/09 09:13:17;;;;;;;5.05;2.08;;;20.80;99.90;;;;;;5037350;28;20421;-91
2022/07/09 09:15:43;;;;;;;4.50;1.90;;;20.90;99.90;;;;;;5040494;28;20397;-96
2022/07/09 09:18:09;;;;;;;5.18;2.10;;;21.00;99.90;;;;;;5038890;28;20061;-93
2022/07/09 09:20:35;;;;;;;4.80;1.80;;;21.10;99.90;;;;;;5040207;28;20038;-91
2022/07/09 09:23:02;;;;;;;5.43;2.00;;;21.00;99.90;;;;;;5036576;28;20037;-93
2022/07/09 09:25:28;;;;;;;5.07;1.83;;;20.60;99.90;;;;;;5035862;28;20041;-94
2022/07/09 09:27:59;;;;;;;4.22;1.88;;;20.60;99.90;;;;;;5014055;28;20136;-93
2022/07/09 09:30:29;;;;;;;4.63;1.90;;;20.70;99.90;;;;;;5041579;28;20045;-93
2022/07/09 09:33:03;;;;;;;7.30;1.73;;;20.50;99.90;;;;;;5034165;28;20132;-93
2022/07/09 09:35:35;;;;;;;6.60;2.13;;;20.60;99.90;;;;;;5038031;28;20033;-94
2022/07/09 09:38:01;;;;;;;6.10;2.08;;;20.70;99.90;;;;;;5033049;28;20046;-94
2022/07/09 09:40:27;;;;;;;4.65;1.80;;;;;;;;;;5035730;28;20478;-95
2022/07/09 09:42:54;;;;;;;6.53;1.73;;;;;;;;;;5041159;28;20170;-93
2022/07/09 09:45:20;;;;;;;5.85;1.70;;;20.80;99.90;;;;;;5038862;28;20054;-95
2022/07/09 09:47:49;;;;;;;5.38;1.70;;;20.90;99.90;;;;;;5033636;28;20037;-92
2022/07/09 09:50:19;;;;;;;4.35;1.40;;;21.00;99.90;;;;;;5034866;28;20064;-95
2022/07/09 09:52:49;;;;;;;5.70;1.70;;;21.10;99.90;;;;;;5047060;28;20069;-94
2022/07/09 09:55:16;;;;;;;4.85;1.70;;;21.10;99.90;;;;;;5020909;28;20098;-91
2022/07/09 09:57:42;;;;;;;4.55;1.50;;;21.30;99.90;;;;;;5020428;28;20080;-92
2022/07/09 10:00:10;;;;;;;5.57;2.03;;;21.30;99.90;;;;;;5030642;28;20506;-94
2022/07/09 10:02:41;;;;;;;6.30;1.70;;;21.30;99.90;;;;;;5018172;28;20037;-91
2022/07/09 10:05:08;;;;;;;6.85;1.90;;;21.30;99.90;;;;;;5021742;28;20041;-94
2022/07/09 10:07:33;;;;;;;5.32;1.55;;;21.30;99.90;;;;;;5025373;28;20049;-89
2022/07/09 10:09:59;;;;;;;5.63;1.70;;;21.30;99.90;;;;;;5031550;28;20044;-86
2022/07/09 10:12:30;;;;;;;5.63;1.60;;;21.50;99.90;;;;;;5017952;28;20052;-95
2022/07/09 10:14:56;;;;;;;6.97;1.55;;;21.60;99.90;;;;;;5019401;28;20041;-90
2022/07/09 10:17:24;;;;;;;5.63;1.55;;;21.60;99.90;;;;;;5035629;28;20149;-90
2022/07/09 10:19:58;;;;;;;4.30;1.40;;;21.50;99.90;;;;;;5034154;28;20497;-93
2022/07/09 10:22:41;;;;;;;5.53;1.60;;;21.40;99.90;;;;;;5033675;28;20052;-90
2022/07/09 10:25:09;;;;;;;6.00;1.67;;;21.40;99.90;;;;;;5016458;28;20046;-95
2022/07/09 10:27:45;;;;;;;5.15;1.70;;;21.20;99.90;;;;;;5029790;28;20120;-91
2022/07/09 10:30:25;;;;;;;5.10;1.60;;;21.00;99.90;;;;;;5031921;28;20045;-94
2022/07/09 10:33:11;;;;;;;6.43;1.80;;;21.10;99.90;;;;;;5029277;28;20074;-91
2022/07/09 10:35:45;;;;;;;5.90;1.65;;;21.20;99.90;;;;;;5033260;28;20045;-93
2022/07/09 10:38:12;;;;;;;4.88;1.40;;;21.40;99.90;;;;;;5028729;28;20045;-93
2022/07/09 10:40:41;;;;;;;5.13;1.40;;;21.30;99.90;;;;;;5033077;28;20128;-91
2022/07/09 10:43:06;;;;;;;3.85;1.30;;;21.20;99.90;;;;;;5029463;28;20104;-87
2022/07/09 10:45:44;;;;;;;6.38;1.75;;;21.10;99.90;;;;;;5030347;28;20076;-92
2022/07/09 10:48:11;;;;;;;6.47;1.58;;;21.10;99.90;;;;;;5028635;28;20506;-85
2022/07/09 10:50:42;;;;;;;6.22;1.60;;;21.10;99.90;;;;;;5029881;28;20037;-96
2022/07/09 10:53:09;;;;;;;5.43;1.90;;;21.10;99.90;;;;;;5027098;28;20046;-93
2022/07/09 10:55:35;;;;;;;5.15;1.58;;;21.30;99.90;;;;;;5018516;28;20037;-94
2022/07/09 10:58:02;;;;;;;5.60;1.75;;;21.60;99.90;;;;;;4999142;28;20053;-92
2022/07/09 11:00:29;;;;;;;7.13;1.70;;;21.50;99.90;;;;;;5011061;28;20046;-89
2022/07/09 11:03:00;;;;;;;6.22;1.80;;;21.50;99.90;;;;;;5012687;28;20046;-94
2022/07/09 11:05:26;;;;;;;5.97;1.97;;;21.40;99.90;;;;;;5012348;28;20441;-91
2022/07/09 11:08:04;;;;;;;7.25;1.70;;;21.40;99.90;;;;;;5028075;28;20652;-93
2022/07/09 11:10:32;;;;;;;6.53;1.60;;;21.30;99.90;;;;;;5032671;28;20064;-94
2022/07/09 11:12:59;;;;;;;4.35;1.60;;;21.30;99.90;;;;;;5034329;28;20096;-94
2022/07/09 11:15:27;;;;;;;5.57;1.40;;;21.30;99.90;;;;;;5030969;28;20042;-93
2022/07/09 11:18:11;;;;;;;5.88;1.50;;;21.20;99.90;;;;;;5038189;28;20042;-95
2022/07/09 11:20:43;;;;;;;3.40;1.25;;;21.10;99.90;;;;;;5036614;28;20111;-94
2022/07/09 11:23:10;;;;;;;4.80;1.45;;;21.10;99.90;;;;;;5026273;28;20489;-90
2022/07/09 11:25:36;;;;;;;5.32;1.70;;;21.20;99.90;;;;;;5028800;28;20389;-88
2022/07/09 11:28:02;;;;;;;6.72;1.77;;;21.30;99.90;;;;;;5045262;28;20157;-90
2022/07/09 11:30:29;;;;;;;6.82;1.75;;;;;;;;;;5030357;28;20044;-91
2022/07/09 11:32:55;;;;;;;6.78;1.90;;;21.30;99.90;;;;;;5049212;28;20049;-88
2022/07/09 11:35:25;;;;;;;5.65;1.60;;;;;;;;;;5048725;28;20041;-89
2022/07/09 11:37:51;;;;;;;5.25;1.70;;;21.10;99.90;;;;;;5023672;28;20080;-87
2022/07/09 11:40:18;;;;;;;7.28;1.77;;;20.90;99.90;;;;;;5027430;28;20509;-89
2022/07/09 11:42:44;;;;;;;5.95;1.95;;;;;;;;;;5026834;28;20085;-91
2022/07/09 11:45:10;;;;;;;5.20;1.90;;;21.00;99.90;;;;;;5026111;28;20060;-87
2022/07/09 11:47:38;;;;;;;9.07;2.35;;;21.00;99.90;;;;;;5030343;28;20114;-92
2022/07/09 11:50:12;;;;;;;6.32;2.00;;;21.00;99.90;;;;;;5038524;28;20454;-89
2022/07/09 11:52:49;;;;;;;8.68;2.20;;;21.10;99.90;;;;;;5031952;28;20071;-90
2022/07/09 11:55:19;;;;;;;7.38;2.45;;;20.90;99.90;;;;;;5025678;28;20041;-90
2022/07/09 11:57:56;;;;;;;6.82;2.08;;;20.80;99.90;;;;;;5047374;28;20142;-93
2022/07/09 12:00:25;;;;;;;9.35;2.35;;;20.80;99.90;;;;;;5051132;28;20382;-93
2022/07/09 12:02:51;;;;;;;7.10;2.15;;;;;;;;;;5036836;28;20041;-94
2022/07/09 12:05:26;;;;;;;7.45;2.20;;;;;;;;;;5033097;28;20049;-92
2022/07/09 12:07:52;;;;;;;7.85;2.40;;;;;;;;;;5033467;28;20041;-92
2022/07/09 12:10:32;;;;;;;8.13;2.70;;;20.50;99.90;;;;;;5032389;28;20064;-87
2022/07/09 12:12:58;;;;;;;8.57;2.05;;;20.60;99.90;;;;;;5030722;28;20049;-94
2022/07/09 12:15:24;;;;;;;5.28;1.70;;;20.60;99.90;;;;;;5035038;28;20045;-90
2022/07/09 12:17:55;;;;;;;5.10;1.70;;;20.40;99.90;;;;;;5032608;28;20053;-93
2022/07/09 12:20:27;;;;;;;7.68;1.85;;;20.40;99.90;;;;;;5033716;28;20049;-88
2022/07/09 12:22:54;;;;;;;6.47;1.75;;;20.50;99.90;;;;;;5032374;28;20052;-93
2022/07/09 12:25:20;;;;;;;6.80;1.60;;;20.60;99.90;;;;;;5034847;28;20170;-94
2022/07/09 12:27:46;;;;;;;7.18;1.80;;;20.60;99.90;;;;;;5033763;28;20045;-94
2022/07/09 12:30:13;;;;;;;5.95;1.50;;;20.70;99.90;;;;;;5035625;28;20037;-88
2022/07/09 12:32:40;;;;;;;5.65;1.63;;;20.60;99.90;;;;;;5035150;28;20137;-90
2022/07/09 12:35:07;;;;;;;4.55;1.38;;;20.50;99.90;;;;;;5033961;28;20049;-90
2022/07/09 12:37:34;;;;;;;4.80;1.65;;;20.50;99.90;;;;;;5037469;28;20037;-95
2022/07/09 12:40:00;;;;;;;8.75;1.67;;;20.60;99.90;;;;;;5035912;28;20053;-92
2022/07/09 12:42:26;;;;;;;4.40;1.30;;;;;;;;;;5018958;28;20041;-91
2022/07/09 12:44:52;;;;;;;7.55;1.50;;;;;;;;;;5036729;28;20057;-95
2022/07/09 12:47:18;;;;;;;6.93;1.50;;;20.50;99.90;;;;;;5036114;28;20069;-93